Terminal Aerodrome Forecast
Issued by NWS Memphis, TN

Home | Current Version | Previous Version | Text Only | Print | Product List | Glossary On
Versions: 1 2 3 4 5 6 7 8 9 10 11 12 13 14 15 16
000
FTUS44 KMEG 281131
TAFMKL
TAF
KMKL 281131Z 2812/2912 20015G25KT P6SM -SHRA VCTS BKN060CB BKN100
     FM281400 18010G16KT P6SM VCSH BKN015 OVC030
     FM281800 23012G18KT P6SM BKN030
     FM282100 25012KT P6SM VCTS BKN050CB
     FM290000 27006KT P6SM BKN050
     FM290400 04003KT P6SM SCT050=

USA.gov is the U.S. government's official web portal to all federal, state and local government web resources and services.